createdAt,value
2018-08-23T00:02:00.050Z,12.80
2018-08-23T00:04:27.340Z,12.90
2018-08-23T00:07:00.043Z,13.83
2018-08-23T00:09:27.444Z,14.03
2018-08-23T00:11:54.708Z,13.97
2018-08-23T00:14:22.104Z,14.93
2018-08-23T00:16:49.454Z,13.40
2018-08-23T00:19:17.274Z,14.47
2018-08-23T00:21:46.099Z,14.30
2018-08-23T00:24:14.646Z,15.03
2018-08-23T00:26:44.172Z,14.27
2018-08-23T00:29:15.493Z,14.53
2018-08-23T00:31:42.827Z,14.77
2018-08-23T00:34:10.716Z,16.27
2018-08-23T00:36:38.364Z,16.33
2018-08-23T00:39:05.878Z,16.30
2018-08-23T00:41:33.222Z,15.50
2018-08-23T00:44:00.487Z,17.97
2018-08-23T00:46:27.779Z,19.57
2018-08-23T00:48:55.067Z,19.70
2018-08-23T00:51:22.387Z,17.87
2018-08-23T00:53:55.416Z,16.37
2018-08-23T00:56:23.330Z,18.10
2018-08-23T00:58:54.885Z,17.33
2018-08-23T01:01:22.521Z,18.93
2018-08-23T01:03:50.159Z,18.67
2018-08-23T01:06:17.716Z,20.77
2018-08-23T01:08:45.027Z,18.30
2018-08-23T01:11:12.314Z,18.13
2018-08-23T01:13:39.650Z,19.10
2018-08-23T01:16:06.966Z,20.33
2018-08-23T01:18:34.230Z,20.10
2018-08-23T01:21:05.478Z,20.17
2018-08-23T01:23:32.814Z,19.40
2018-08-23T01:26:00.135Z,22.53
2018-08-23T01:28:27.431Z,21.33
2018-08-23T01:30:54.877Z,20.40
2018-08-23T01:33:22.599Z,21.30
2018-08-23T01:35:50.887Z,19.60
2018-08-23T01:38:18.337Z,18.60
2018-08-23T01:40:45.851Z,17.17
2018-08-23T01:43:13.124Z,22.90
2018-08-23T01:45:40.411Z,21.73
2018-08-23T01:48:08.460Z,23.07
2018-08-23T01:50:35.802Z,19.10
2018-08-23T01:53:03.140Z,21.53
2018-08-23T01:55:30.509Z,20.83
2018-08-23T01:57:57.785Z,23.87
2018-08-23T02:00:33.009Z,18.90
2018-08-23T02:03:00.840Z,24.67
2018-08-23T02:05:28.168Z,24.40
2018-08-23T02:07:55.449Z,25.40
2018-08-23T02:10:22.785Z,26.27
2018-08-23T02:12:52.309Z,25.87
2018-08-23T02:15:19.715Z,23.23
2018-08-23T02:17:55.327Z,28.10
2018-08-23T02:20:23.489Z,26.03
2018-08-23T02:22:50.926Z,25.90
2018-08-23T02:25:18.255Z,28.73
2018-08-23T02:27:57.487Z,27.17
2018-08-23T02:30:34.754Z,28.67
2018-08-23T02:33:02.066Z,29.67
2018-08-23T02:35:29.339Z,28.07
2018-08-23T02:37:56.647Z,31.17
2018-08-23T02:40:24.102Z,29.80
2018-08-23T02:42:51.394Z,33.67
2018-08-23T02:45:18.680Z,30.63
2018-08-23T02:47:46.134Z,30.97
2018-08-23T02:50:13.419Z,32.10
2018-08-23T02:52:40.723Z,34.27
2018-08-23T02:55:08.036Z,33.87
2018-08-23T02:57:35.509Z,33.00
2018-08-23T03:00:02.816Z,35.10
2018-08-23T03:02:30.088Z,33.97
2018-08-23T03:04:57.370Z,37.73
2018-08-23T03:07:27.412Z,36.73
2018-08-23T03:09:54.697Z,30.70
2018-08-23T03:12:22.024Z,35.70
2018-08-23T03:14:49.341Z,38.83
2018-08-23T03:17:19.256Z,40.87
2018-08-23T03:20:08.989Z,36.90
2018-08-23T03:22:36.616Z,37.17
2018-08-23T03:25:06.133Z,38.00
2018-08-23T03:27:33.453Z,42.03
2018-08-23T03:30:01.568Z,36.23
2018-08-23T03:32:29.700Z,41.43
2018-08-23T03:34:57.307Z,39.00
2018-08-23T03:37:24.698Z,40.60
2018-08-23T03:39:52.028Z,41.80
2018-08-23T03:42:19.474Z,42.03
2018-08-23T03:44:46.877Z,41.83
2018-08-23T03:47:14.181Z,36.13
2018-08-23T03:49:44.832Z,40.50
2018-08-23T03:52:12.799Z,40.17
2018-08-23T03:54:40.134Z,41.30
2018-08-23T03:57:15.118Z,40.60
2018-08-23T03:59:44.166Z,42.40
2018-08-23T04:02:11.783Z,41.07
2018-08-23T04:04:39.181Z,45.83
2018-08-23T04:07:06.501Z,43.33
2018-08-23T04:09:33.854Z,45.20
2018-08-23T04:12:01.125Z,43.37
2018-08-23T04:14:28.414Z,47.37
2018-08-23T04:16:55.679Z,51.77
2018-08-23T04:19:22.979Z,55.83
2018-08-23T04:21:50.238Z,49.73
2018-08-23T04:24:17.583Z,48.23
2018-08-23T04:26:44.864Z,52.83
2018-08-23T04:29:13.069Z,52.33
2018-08-23T04:31:40.367Z,50.73
2018-08-23T04:34:08.178Z,50.10
2018-08-23T04:36:38.441Z,51.83
2018-08-23T04:39:07.270Z,51.77
2018-08-23T04:41:34.526Z,57.80
2018-08-23T04:44:12.550Z,52.47
2018-08-23T04:46:39.834Z,51.23
2018-08-23T04:49:07.775Z,55.53
2018-08-23T04:51:36.162Z,56.33
2018-08-23T04:54:03.434Z,60.97
2018-08-23T04:56:31.315Z,50.00
2018-08-23T04:58:58.762Z,54.60
2018-08-23T05:01:26.051Z,58.17
2018-08-23T05:03:53.428Z,59.40
2018-08-23T05:06:30.281Z,58.23
2018-08-23T05:08:57.591Z,58.97
2018-08-23T05:11:24.866Z,59.07
2018-08-23T05:13:52.142Z,58.13
2018-08-23T05:16:19.472Z,58.53
2018-08-23T05:18:46.824Z,59.87
2018-08-23T05:21:14.127Z,61.50
2018-08-23T05:23:41.369Z,54.57
2018-08-23T05:26:13.873Z,62.53
2018-08-23T05:28:45.659Z,58.20
2018-08-23T05:31:12.942Z,55.83
2018-08-23T05:33:40.215Z,60.93
2018-08-23T05:36:12.026Z,65.43
2018-08-23T05:38:39.323Z,64.27
2018-08-23T05:41:13.054Z,57.87
2018-08-23T05:43:40.419Z,62.30
2018-08-23T05:46:08.642Z,63.43
2018-08-23T05:48:35.911Z,61.20
2018-08-23T05:51:07.714Z,61.30
2018-08-23T05:53:56.650Z,58.47
2018-08-23T05:56:23.944Z,56.83
2018-08-23T05:58:52.506Z,61.47
2018-08-23T06:01:19.821Z,57.27
2018-08-23T06:03:47.125Z,59.93
2018-08-23T06:06:14.698Z,58.80
2018-08-23T06:08:44.386Z,55.73
2018-08-23T06:11:12.214Z,59.70
2018-08-23T06:13:40.003Z,60.30
2018-08-23T06:16:07.329Z,56.20
2018-08-23T06:18:34.614Z,54.97
2018-08-23T06:21:01.897Z,52.83
2018-08-23T06:24:07.563Z,55.63
2018-08-23T06:26:53.918Z,56.53
2018-08-23T06:29:23.144Z,54.43
2018-08-23T06:31:55.427Z,55.20
2018-08-23T06:34:24.295Z,54.70
2018-08-23T06:36:51.755Z,53.30
2018-08-23T06:39:19.077Z,51.60
2018-08-23T06:41:46.493Z,52.03
2018-08-23T06:44:13.763Z,52.10
2018-08-23T06:46:41.047Z,55.37
2018-08-23T06:49:08.348Z,55.10
2018-08-23T06:51:35.616Z,56.30
2018-08-23T06:54:03.437Z,50.87
2018-08-23T06:56:33.396Z,52.77
2018-08-23T06:59:00.811Z,49.97
2018-08-23T07:01:34.943Z,49.10
2018-08-23T07:04:07.562Z,51.50
2018-08-23T07:06:35.487Z,50.97
2018-08-23T07:09:04.426Z,49.93
2018-08-23T07:11:31.723Z,48.47
2018-08-23T07:14:04.453Z,48.30
2018-08-23T07:16:31.759Z,51.77
2018-08-23T07:18:59.389Z,48.67
2018-08-23T07:21:26.683Z,45.60
2018-08-23T07:23:53.962Z,45.10
2018-08-23T07:26:21.423Z,47.73
2018-08-23T07:28:48.687Z,50.63
2018-08-23T07:31:16.079Z,50.13
2018-08-23T07:33:45.775Z,50.57
2018-08-23T07:36:19.272Z,50.30
2018-08-23T07:38:49.402Z,50.07
2018-08-23T07:41:16.828Z,49.17
2018-08-23T07:43:44.643Z,44.00
2018-08-23T07:46:11.952Z,42.57
2018-08-23T07:48:39.342Z,43.20
2018-08-23T07:51:08.460Z,43.57
2018-08-23T07:53:35.809Z,48.10
2018-08-23T07:56:07.639Z,47.47
2018-08-23T07:58:34.934Z,45.50
2018-08-23T08:01:02.277Z,47.30
2018-08-23T08:03:29.546Z,41.97
2018-08-23T08:05:56.831Z,40.13
2018-08-23T08:08:24.127Z,41.53
2018-08-23T08:10:51.591Z,43.73
2018-08-23T08:13:18.903Z,39.40
2018-08-23T08:15:46.245Z,36.73
2018-08-23T08:18:18.767Z,40.23
2018-08-23T08:21:03.353Z,43.80
2018-08-23T08:23:31.096Z,34.30
2018-08-23T08:25:58.387Z,38.43
2018-08-23T08:28:25.699Z,43.80
2018-08-23T08:30:56.040Z,45.00
2018-08-23T08:33:23.393Z,46.47
2018-08-23T08:35:55.030Z,44.83
2018-08-23T08:38:22.299Z,43.80
2018-08-23T08:40:50.737Z,44.77
2018-08-23T08:43:18.047Z,42.97
2018-08-23T08:45:45.336Z,46.37
2018-08-23T08:48:17.619Z,47.17
2018-08-23T08:50:50.854Z,45.10
2018-08-23T08:53:18.217Z,47.10
2018-08-23T08:55:45.583Z,43.37
2018-08-23T08:58:12.894Z,48.20
2018-08-23T09:00:50.058Z,42.37
2018-08-23T09:03:17.879Z,46.73
2018-08-23T09:05:45.089Z,43.13
2018-08-23T09:08:12.367Z,47.57
2018-08-23T09:10:39.659Z,45.63
2018-08-23T09:13:06.987Z,38.47
2018-08-23T09:15:34.258Z,42.70
2018-08-23T09:18:01.527Z,43.37
2018-08-23T09:20:28.906Z,41.60
2018-08-23T09:22:56.150Z,46.20
2018-08-23T09:25:25.494Z,37.20
2018-08-23T09:27:52.925Z,40.07
2018-08-23T09:30:25.676Z,41.93
2018-08-23T09:32:53.183Z,39.30
2018-08-23T09:35:22.509Z,44.37
2018-08-23T09:37:54.238Z,34.40
2018-08-23T09:40:22.143Z,45.83
2018-08-23T09:42:49.491Z,40.10
2018-08-23T09:45:18.018Z,38.10
2018-08-23T09:47:45.324Z,46.30
2018-08-23T09:50:12.719Z,38.00
2018-08-23T09:52:40.723Z,40.77
2018-08-23T09:55:08.966Z,42.20
2018-08-23T09:57:36.651Z,38.47
2018-08-23T10:00:04.895Z,41.00
2018-08-23T10:02:37.711Z,46.00
2018-08-23T10:05:06.289Z,35.80
2018-08-23T10:07:39.065Z,38.80
2018-08-23T10:10:11.651Z,40.90
2018-08-23T10:12:44.477Z,40.10
2018-08-23T10:15:17.311Z,38.97
2018-08-23T10:17:49.918Z,40.17
2018-08-23T10:20:22.687Z,37.73
2018-08-23T10:22:55.377Z,38.80
2018-08-23T10:25:37.044Z,41.43
2018-08-23T10:28:05.133Z,39.40
2018-08-23T10:30:32.482Z,39.40
2018-08-23T10:32:59.771Z,44.00
2018-08-23T10:35:27.071Z,44.27
2018-08-23T10:37:54.426Z,38.97
2018-08-23T10:40:21.768Z,37.70
2018-08-23T10:42:49.218Z,35.93
2018-08-23T10:45:16.618Z,41.13
2018-08-23T10:47:49.369Z,39.87
2018-08-23T10:50:16.746Z,44.00
2018-08-23T10:52:44.072Z,44.20
2018-08-23T10:55:11.651Z,40.73
2018-08-23T10:57:38.919Z,40.60
2018-08-23T11:00:06.312Z,40.33
2018-08-23T11:02:33.683Z,42.33
2018-08-23T11:05:00.970Z,36.30
2018-08-23T11:07:33.693Z,39.20
2018-08-23T11:10:06.296Z,37.17
2018-08-23T11:12:39.077Z,33.53
2018-08-23T11:15:11.805Z,40.30
2018-08-23T11:17:44.590Z,36.93
2018-08-23T11:20:17.051Z,40.27
2018-08-23T11:22:44.344Z,35.77
2018-08-23T11:25:11.617Z,36.00
2018-08-23T11:27:38.902Z,31.53
2018-08-23T11:30:06.231Z,37.97
2018-08-23T11:32:33.519Z,36.00
2018-08-23T11:35:00.795Z,32.90
2018-08-23T11:37:28.095Z,34.00
2018-08-23T11:39:55.466Z,32.67
2018-08-23T11:42:23.094Z,36.87
2018-08-23T11:44:50.474Z,37.53
2018-08-23T11:47:17.791Z,39.17
2018-08-23T11:49:45.080Z,39.80
2018-08-23T11:52:12.388Z,35.97
2018-08-23T11:54:39.687Z,31.70
2018-08-23T11:57:06.995Z,27.27
2018-08-23T11:59:34.282Z,22.27
2018-08-23T12:02:01.577Z,26.87
2018-08-23T12:04:28.916Z,27.77
2018-08-23T12:06:56.302Z,25.10
2018-08-23T12:09:27.943Z,27.70
2018-08-23T12:11:55.500Z,28.57
2018-08-23T12:14:23.937Z,28.30
2018-08-23T12:16:52.342Z,26.80
2018-08-23T12:19:19.695Z,28.53
2018-08-23T12:21:47.037Z,27.77
2018-08-23T12:24:14.318Z,24.10
2018-08-23T12:26:41.650Z,27.00
2018-08-23T12:29:09.854Z,26.13
2018-08-23T12:31:39.139Z,31.77
2018-08-23T12:34:08.785Z,27.50
2018-08-23T12:36:41.607Z,25.73
2018-08-23T12:39:14.425Z,22.90
2018-08-23T12:41:47.605Z,19.70
2018-08-23T12:44:14.905Z,20.53
2018-08-23T12:46:42.203Z,20.00
2018-08-23T12:49:09.495Z,19.20
2018-08-23T12:51:36.858Z,19.90
2018-08-23T12:54:04.117Z,20.77
2018-08-23T12:56:31.598Z,18.80
2018-08-23T12:58:58.816Z,19.50
2018-08-23T13:01:26.125Z,19.83
2018-08-23T13:03:53.797Z,20.40
2018-08-23T13:06:21.584Z,18.77
2018-08-23T13:08:51.662Z,20.00
2018-08-23T13:11:19.990Z,19.23
2018-08-23T13:13:49.884Z,22.10
2018-08-23T13:16:18.394Z,19.20
2018-08-23T13:18:46.529Z,19.97
2018-08-23T13:21:15.233Z,24.53
2018-08-23T13:23:45.725Z,30.90
2018-08-23T13:26:13.630Z,28.93
2018-08-23T13:28:41.424Z,28.13
2018-08-23T13:31:11.086Z,31.87
2018-08-23T13:33:38.711Z,31.50
2018-08-23T13:36:06.701Z,32.87
2018-08-23T13:38:34.745Z,33.70
2018-08-23T13:41:02.287Z,31.93
2018-08-23T13:43:31.014Z,34.40
2018-08-23T13:45:59.917Z,34.70
2018-08-23T13:48:28.008Z,34.80
2018-08-23T13:50:56.479Z,33.60
2018-08-23T13:53:25.454Z,30.10
2018-08-23T13:55:56.040Z,31.83
2018-08-23T13:58:23.958Z,31.40
2018-08-23T14:00:52.151Z,34.33
2018-08-23T14:03:21.434Z,31.90
2018-08-23T14:05:50.421Z,31.70
2018-08-23T14:08:17.980Z,32.20
2018-08-23T14:10:45.290Z,33.20
2018-08-23T14:13:13.986Z,30.13
2018-08-23T14:15:46.710Z,30.40
2018-08-23T14:18:14.034Z,34.73
2018-08-23T14:20:41.290Z,34.17
2018-08-23T14:23:09.321Z,34.47
2018-08-23T14:25:36.678Z,33.07
2018-08-23T14:28:04.014Z,35.37
2018-08-23T14:30:35.443Z,33.73
2018-08-23T14:33:02.764Z,32.50
2018-08-23T14:35:30.026Z,31.47
2018-08-23T14:37:57.337Z,32.40
2018-08-23T14:40:25.039Z,32.40
2018-08-23T14:42:52.341Z,29.17
2018-08-23T14:45:24.903Z,28.70
2018-08-23T14:47:57.676Z,27.57
2018-08-23T14:50:24.983Z,24.20
2018-08-23T14:52:52.489Z,24.73
2018-08-23T14:55:25.303Z,26.53
2018-08-23T14:57:52.623Z,24.40
2018-08-23T15:00:20.081Z,22.07
2018-08-23T15:02:52.685Z,23.03
2018-08-23T15:05:21.600Z,21.23
2018-08-23T15:07:50.193Z,19.97
2018-08-23T15:10:17.767Z,19.87
2018-08-23T15:12:47.746Z,17.93
2018-08-23T15:15:15.129Z,19.13
2018-08-23T15:17:42.519Z,18.23
2018-08-23T15:20:09.969Z,18.13
2018-08-23T15:22:37.277Z,18.97
2018-08-23T15:25:04.778Z,17.73
2018-08-23T15:27:33.377Z,19.50
2018-08-23T15:30:02.134Z,18.23
2018-08-23T15:32:29.527Z,16.30
2018-08-23T15:34:56.825Z,16.20
2018-08-23T15:37:24.489Z,16.63
2018-08-23T15:39:52.034Z,19.97
2018-08-23T15:42:19.371Z,17.67
2018-08-23T15:44:46.652Z,20.77
2018-08-23T15:47:13.918Z,18.63
2018-08-23T15:49:41.217Z,20.00
2018-08-23T15:52:09.326Z,19.80
2018-08-23T15:54:36.617Z,19.60
2018-08-23T15:57:03.918Z,19.53
2018-08-23T15:59:31.206Z,20.70
2018-08-23T16:01:58.538Z,21.50
2018-08-23T16:04:25.832Z,20.53
2018-08-23T16:06:53.150Z,18.40
2018-08-23T16:09:20.474Z,19.87
2018-08-23T16:11:47.938Z,21.70
2018-08-23T16:14:15.211Z,21.23
2018-08-23T16:16:47.999Z,21.80
2018-08-23T16:19:20.819Z,22.23
2018-08-23T16:21:53.570Z,23.47
2018-08-23T16:24:20.901Z,22.63
2018-08-23T16:26:53.765Z,23.10
2018-08-23T16:29:21.156Z,23.60
2018-08-23T16:31:48.599Z,23.40
2018-08-23T16:34:16.728Z,23.07
2018-08-23T16:36:44.040Z,23.00
2018-08-23T16:39:11.399Z,24.43
2018-08-23T16:41:38.685Z,24.03
2018-08-23T16:44:06.004Z,22.63
2018-08-23T16:46:33.343Z,22.00
2018-08-23T16:49:00.641Z,22.63
2018-08-23T16:51:27.922Z,22.03
2018-08-23T16:53:55.238Z,24.57
2018-08-23T16:56:22.567Z,23.47
2018-08-23T16:58:49.932Z,23.93
2018-08-23T17:01:17.299Z,24.60
2018-08-23T17:03:48.891Z,23.43
2018-08-23T17:06:16.374Z,22.00
2018-08-23T17:08:43.690Z,24.03
2018-08-23T17:11:10.982Z,24.97
2018-08-23T17:13:38.274Z,25.50
2018-08-23T17:16:11.407Z,25.87
2018-08-23T17:18:38.881Z,26.87
2018-08-23T17:21:06.123Z,26.27
2018-08-23T17:23:33.433Z,25.87
2018-08-23T17:26:00.738Z,25.57
2018-08-23T17:28:28.056Z,25.87
2018-08-23T17:30:55.346Z,25.67
2018-08-23T17:33:22.667Z,23.93
2018-08-23T17:35:49.985Z,26.57
2018-08-23T17:38:17.432Z,23.43
2018-08-23T17:40:44.715Z,22.73
2018-08-23T17:43:12.424Z,24.90
2018-08-23T17:45:39.734Z,26.10
2018-08-23T17:48:07.060Z,23.20
2018-08-23T17:50:34.377Z,22.93
2018-08-23T17:53:01.664Z,23.43
2018-08-23T17:55:28.968Z,23.60
2018-08-23T17:57:56.298Z,23.23
2018-08-23T18:00:23.610Z,22.77
2018-08-23T18:02:50.931Z,24.17
2018-08-23T18:05:18.248Z,23.10
2018-08-23T18:07:45.538Z,22.47
2018-08-23T18:10:12.864Z,21.40
2018-08-23T18:12:40.129Z,20.63
2018-08-23T18:15:09.147Z,21.10
2018-08-23T18:17:36.727Z,20.23
2018-08-23T18:20:04.018Z,21.67
2018-08-23T18:22:31.402Z,20.20
2018-08-23T18:24:58.666Z,20.77
2018-08-23T18:27:25.937Z,20.07
2018-08-23T18:29:53.335Z,19.50
2018-08-23T18:32:21.100Z,21.97
2018-08-23T18:34:48.405Z,20.73
2018-08-23T18:37:16.433Z,20.13
2018-08-23T18:39:43.754Z,20.77
2018-08-23T18:42:11.038Z,20.70
2018-08-23T18:44:38.288Z,20.47
2018-08-23T18:47:05.574Z,21.60
2018-08-23T18:49:32.838Z,21.47
2018-08-23T18:52:00.126Z,20.70
2018-08-23T18:54:27.442Z,21.07
2018-08-23T18:56:54.686Z,19.40
2018-08-23T18:59:22.025Z,19.87
2018-08-23T19:04:23.445Z,20.30
2018-08-23T19:06:50.711Z,19.33
2018-08-23T19:09:18.040Z,20.47
2018-08-23T19:11:45.322Z,20.87
2018-08-23T19:14:12.580Z,20.40
2018-08-23T19:16:45.382Z,20.63
2018-08-23T19:19:12.630Z,20.83
2018-08-23T19:21:39.890Z,20.33
2018-08-23T19:24:07.197Z,21.27
2018-08-23T19:26:34.605Z,22.00
2018-08-23T19:29:01.934Z,19.80
2018-08-23T19:31:29.448Z,20.60
2018-08-23T19:33:56.675Z,21.00
2018-08-23T19:36:24.050Z,21.30
2018-08-23T19:38:51.675Z,22.27
2018-08-23T19:41:18.974Z,21.83
2018-08-23T19:43:46.810Z,23.03
2018-08-23T19:46:19.530Z,22.07
2018-08-23T19:48:48.647Z,20.37
2018-08-23T19:51:15.927Z,21.73
2018-08-23T19:53:43.256Z,19.83
2018-08-23T19:56:10.544Z,18.33
2018-08-23T19:58:37.833Z,17.63
2018-08-23T20:01:05.185Z,17.60
2018-08-23T20:03:32.497Z,16.83
2018-08-23T20:05:59.775Z,17.47
2018-08-23T20:08:27.079Z,17.87
2018-08-23T20:10:54.432Z,18.73
2018-08-23T20:13:21.764Z,19.00
2018-08-23T20:15:49.161Z,19.07
2018-08-23T20:18:16.428Z,20.50
2018-08-23T20:20:43.734Z,19.00
2018-08-23T20:23:11.267Z,19.10
2018-08-23T20:25:38.558Z,18.57
2018-08-23T20:28:05.967Z,21.73
2018-08-23T20:30:33.283Z,21.77
2018-08-23T20:33:00.604Z,21.57
2018-08-23T20:35:27.983Z,21.93
2018-08-23T20:37:55.262Z,21.87
2018-08-23T20:40:22.577Z,22.80
2018-08-23T20:42:49.926Z,24.27
2018-08-23T20:45:17.294Z,24.60
2018-08-23T20:47:44.597Z,26.10
2018-08-23T20:50:11.918Z,22.37
2018-08-23T20:52:39.287Z,22.43
2018-08-23T20:55:06.624Z,21.67
2018-08-23T20:57:33.998Z,24.53
2018-08-23T21:00:01.386Z,21.90
2018-08-23T21:02:28.711Z,22.87
2018-08-23T21:04:56.087Z,23.03
2018-08-23T21:07:23.559Z,23.50
2018-08-23T21:09:50.874Z,23.10
2018-08-23T21:12:18.266Z,22.87
2018-08-23T21:14:45.595Z,23.37
2018-08-23T21:17:12.887Z,22.93
2018-08-23T21:19:40.190Z,22.80
2018-08-23T21:22:07.552Z,22.97
2018-08-23T21:24:35.022Z,21.23
2018-08-23T21:27:02.307Z,21.50
2018-08-23T21:29:29.609Z,25.80
2018-08-23T21:31:56.980Z,22.50
2018-08-23T21:34:24.310Z,23.23
2018-08-23T21:36:51.639Z,21.33
2018-08-23T21:39:18.986Z,21.30
2018-08-23T21:41:46.352Z,21.03
2018-08-23T21:44:13.691Z,21.37
2018-08-23T21:46:41.000Z,21.23
2018-08-23T21:49:08.915Z,21.50
2018-08-23T21:51:36.167Z,22.43
2018-08-23T21:54:03.492Z,24.90
2018-08-23T21:56:30.766Z,22.00
2018-08-23T21:58:58.122Z,25.23
2018-08-23T22:01:25.448Z,25.37
2018-08-23T22:03:52.742Z,24.60
2018-08-23T22:06:20.029Z,22.97
2018-08-23T22:08:47.373Z,23.43
2018-08-23T22:11:14.629Z,24.60
2018-08-23T22:13:41.978Z,25.23
2018-08-23T22:16:09.255Z,26.73
2018-08-23T22:18:36.502Z,24.17
2018-08-23T22:21:03.794Z,26.50
2018-08-23T22:23:31.113Z,23.60
2018-08-23T22:25:58.368Z,24.57
2018-08-23T22:28:26.009Z,27.63
2018-08-23T22:30:53.304Z,28.40
2018-08-23T22:33:20.572Z,25.97
2018-08-23T22:35:47.845Z,30.63
2018-08-23T22:38:15.126Z,27.10
2018-08-23T22:40:42.409Z,29.20
2018-08-23T22:43:09.666Z,26.57
2018-08-23T22:45:37.023Z,28.77
2018-08-23T22:48:09.511Z,26.20
2018-08-23T22:53:51.367Z,25.00
2018-08-23T22:56:18.690Z,28.27
2018-08-23T22:58:46.816Z,27.40
2018-08-23T23:01:14.246Z,25.07
2018-08-23T23:03:47.117Z,25.97
2018-08-23T23:06:14.410Z,25.10
2018-08-23T23:08:41.733Z,26.43
2018-08-23T23:11:09.178Z,25.47
2018-08-23T23:13:36.484Z,23.70
2018-08-23T23:16:03.790Z,23.13
2018-08-23T23:18:31.071Z,24.63
2018-08-23T23:20:58.350Z,24.23
2018-08-23T23:23:25.644Z,23.13
2018-08-23T23:25:52.922Z,24.20
2018-08-23T23:28:20.312Z,24.90
2018-08-23T23:30:47.614Z,25.33
2018-08-23T23:33:14.894Z,23.57
2018-08-23T23:35:42.186Z,22.07
2018-08-23T23:38:09.469Z,24.20
2018-08-23T23:40:36.770Z,25.93
2018-08-23T23:43:04.090Z,23.33
2018-08-23T23:45:31.379Z,23.97
2018-08-23T23:47:58.646Z,21.83
2018-08-23T23:50:26.034Z,22.20
2018-08-23T23:52:53.336Z,22.60
2018-08-23T23:55:20.618Z,21.17
2018-08-23T23:57:47.909Z,20.83
